Time;durP1;ratioP1;P1;durP2;ratioP2;P2;SDS_P1;SDS_P2;PMS_P1;PMS_P2;Temp;Humidity;BMP_temperature;BMP_pressure;BME280_temperature;BME280_humidity;BME280_pressure;Samples;Min_cycle;Max_cycle;Signal;HPM_P1;HPM_P2
2022/04/21 00:00:15;;;;;;;2.70;1.50;;;20.40;57.50;;;;;;4975749;28;20464;-15
2022/04/21 00:02:41;;;;;;;1.10;1.10;;;20.40;57.60;;;;;;4972681;28;20443;-15
2022/04/21 00:05:07;;;;;;;1.73;1.60;;;20.40;57.50;;;;;;4976261;28;20030;-15
2022/04/21 00:07:32;;;;;;;1.27;1.17;;;20.40;57.50;;;;;;4971540;28;20046;-16
2022/04/21 00:09:58;;;;;;;1.25;1.23;;;20.40;57.50;;;;;;4974908;28;20050;-17
2022/04/21 00:12:24;;;;;;;1.50;1.40;;;20.40;57.50;;;;;;4972615;28;20053;-17
2022/04/21 00:14:49;;;;;;;1.50;1.40;;;20.40;57.50;;;;;;4975869;28;20405;-17
2022/04/21 00:17:15;;;;;;;1.33;1.23;;;20.40;57.50;;;;;;4973480;28;20043;-17
2022/04/21 00:19:40;;;;;;;1.20;1.10;;;20.40;57.50;;;;;;4971467;28;20092;-17
2022/04/21 00:24:50;;;;;;;;;;;20.40;57.50;;;;;;4969523;28;20101;-17
2022/04/21 00:27:16;;;;;;;1.65;1.30;;;20.40;57.50;;;;;;4957012;28;19962;-16
2022/04/21 00:29:42;;;;;;;1.60;1.25;;;20.40;57.50;;;;;;4958188;28;20133;-18
2022/04/21 00:32:07;;;;;;;1.30;1.20;;;20.40;57.50;;;;;;4957787;28;20126;-16
2022/04/21 00:34:34;;;;;;;1.35;1.25;;;20.40;57.50;;;;;;4973526;28;20047;-18
2022/04/21 00:36:59;;;;;;;1.00;1.00;;;20.40;57.50;;;;;;4961442;28;20143;-17
2022/04/21 00:39:25;;;;;;;1.33;1.23;;;20.40;57.60;;;;;;4970009;28;20051;-16
2022/04/21 00:42:01;;;;;;;1.08;1.08;;;20.40;57.60;;;;;;4965921;28;20074;-17
2022/04/21 00:44:27;;;;;;;1.00;1.00;;;20.30;58.20;;;;;;4971891;28;20051;-17
2022/04/21 00:46:53;;;;;;;1.10;1.10;;;20.30;57.50;;;;;;4957709;28;20055;-16
2022/04/21 00:49:20;;;;;;;0.88;0.88;;;20.30;57.60;;;;;;4956988;28;20054;-16
2022/04/21 00:51:46;;;;;;;1.08;1.08;;;20.30;57.60;;;;;;4974712;28;20054;-17
2022/04/21 00:54:11;;;;;;;1.25;1.15;;;20.30;57.50;;;;;;4987546;28;20044;-16
2022/04/21 00:56:38;;;;;;;1.20;1.10;;;20.30;57.60;;;;;;4955597;28;20043;-16
2022/04/21 00:59:04;;;;;;;1.13;1.10;;;20.30;57.60;;;;;;4957521;28;20039;-17
2022/04/21 01:04:14;;;;;;;;;;;20.30;57.50;;;;;;4957129;28;20054;-17
2022/04/21 01:06:40;;;;;;;1.48;0.90;;;20.30;57.60;;;;;;4962333;28;19926;-18
2022/04/21 01:09:06;;;;;;;0.98;0.90;;;20.30;57.60;;;;;;4957191;28;20453;-17
2022/04/21 01:11:31;;;;;;;0.98;0.95;;;20.30;57.50;;;;;;4956576;28;20424;-16
2022/04/21 01:13:57;;;;;;;1.35;1.25;;;20.30;57.60;;;;;;4957334;28;20051;-17
2022/04/21 01:16:22;;;;;;;0.93;0.93;;;20.30;57.60;;;;;;4995944;28;20043;-17
2022/04/21 01:18:48;;;;;;;1.08;1.08;;;20.30;57.60;;;;;;4976675;28;20057;-16
2022/04/21 01:21:13;;;;;;;1.00;1.00;;;20.30;57.60;;;;;;4963973;28;20047;-18
2022/04/21 01:23:39;;;;;;;1.40;1.30;;;20.30;57.50;;;;;;4957103;28;20452;-17
2022/04/21 01:26:05;;;;;;;1.90;1.80;;;20.30;57.50;;;;;;4957141;28;20039;-17
2022/04/21 01:28:30;;;;;;;1.33;1.23;;;20.30;57.60;;;;;;4955932;28;20452;-16
2022/04/21 01:30:56;;;;;;;0.93;0.93;;;20.20;57.60;;;;;;4992044;28;20043;-17
2022/04/21 01:33:22;;;;;;;1.08;1.08;;;20.30;57.60;;;;;;4991021;28;20467;-16
2022/04/21 01:35:47;;;;;;;1.35;1.23;;;20.30;57.60;;;;;;4960901;28;20133;-17
2022/04/21 01:41:09;;;;;;;;;;;20.20;57.60;;;;;;4964669;28;20100;-17
2022/04/21 01:43:36;;;;;;;1.48;1.10;;;20.30;57.50;;;;;;4979296;28;19917;-17
2022/04/21 01:46:02;;;;;;;1.00;1.00;;;20.30;57.60;;;;;;4980319;28;20125;-16
2022/04/21 01:48:28;;;;;;;1.30;1.20;;;20.20;57.60;;;;;;4976705;28;20420;-16
2022/04/21 01:50:53;;;;;;;1.15;1.05;;;20.20;57.60;;;;;;4979955;28;20051;-19
2022/04/21 01:53:19;;;;;;;1.40;1.30;;;20.20;57.60;;;;;;4974302;28;20126;-17
2022/04/21 01:55:46;;;;;;;1.02;1.00;;;20.20;57.60;;;;;;4960533;28;20443;-17
2022/04/21 01:58:11;;;;;;;1.75;1.40;;;20.20;57.60;;;;;;4960810;28;20051;-16
2022/04/21 02:00:37;;;;;;;0.98;0.98;;;20.20;57.60;;;;;;4960097;28;20055;-17
2022/04/21 02:03:02;;;;;;;1.40;1.10;;;20.20;57.70;;;;;;4960599;28;20074;-16
2022/04/21 02:05:28;;;;;;;1.00;1.00;;;20.20;57.70;;;;;;4960452;28;20081;-17
2022/04/21 02:07:54;;;;;;;1.15;1.05;;;20.20;57.60;;;;;;4973840;28;20051;-16
2022/04/21 02:10:21;;;;;;;1.25;1.15;;;20.20;57.70;;;;;;4970228;28;20378;-17
2022/04/21 02:12:47;;;;;;;0.98;0.95;;;20.20;57.70;;;;;;4960310;28;20035;-16
2022/04/21 02:15:13;;;;;;;1.10;1.10;;;20.20;57.70;;;;;;4960782;28;20041;-17
2022/04/21 02:17:39;;;;;;;1.05;0.95;;;20.20;57.70;;;;;;4978216;28;20074;-17
2022/04/21 02:20:06;;;;;;;1.10;1.00;;;20.20;57.70;;;;;;4972571;28;20107;-16
2022/04/21 02:22:32;;;;;;;1.13;1.02;;;20.20;57.70;;;;;;4957608;28;20059;-15
2022/04/21 02:24:58;;;;;;;1.20;1.10;;;20.20;57.70;;;;;;4959019;28;20126;-17
2022/04/21 02:27:23;;;;;;;1.20;1.10;;;20.20;57.80;;;;;;4958552;28;20504;-16
2022/04/21 02:29:49;;;;;;;1.70;1.08;;;20.20;57.70;;;;;;4959332;28;20036;-15
2022/04/21 02:32:15;;;;;;;0.90;0.90;;;20.20;57.70;;;;;;4958830;28;20513;-15
2022/04/21 02:34:41;;;;;;;1.20;1.20;;;20.20;57.80;;;;;;4958229;28;20043;-16
2022/04/21 02:37:07;;;;;;;1.10;1.10;;;20.20;57.80;;;;;;4969686;28;20054;-15
2022/04/21 02:39:33;;;;;;;1.23;1.15;;;20.20;57.90;;;;;;4969135;28;20051;-16
2022/04/21 02:41:59;;;;;;;1.20;1.10;;;20.20;57.90;;;;;;4969679;28;20106;-16
2022/04/21 02:44:25;;;;;;;1.10;1.00;;;20.20;57.80;;;;;;4977416;28;20609;-15
2022/04/21 02:46:51;;;;;;;1.45;1.35;;;20.20;57.90;;;;;;4976092;28;20046;-17
2022/04/21 02:49:16;;;;;;;1.20;1.10;;;20.20;57.90;;;;;;4977774;28;20050;-15
2022/04/21 02:51:42;;;;;;;1.23;1.13;;;20.10;57.90;;;;;;4975824;28;20042;-16
2022/04/21 02:57:21;;;;;;;1.80;1.20;;;20.10;58.00;;;;;;4957167;28;20047;-15
2022/04/21 02:59:50;;;;;;;1.50;1.40;;;20.10;58.00;;;;;;4977307;28;20042;-16
2022/04/21 03:02:17;;;;;;;0.80;0.80;;;20.10;58.70;;;;;;4977841;28;20042;-15
2022/04/21 03:04:43;;;;;;;1.10;1.00;;;20.10;58.00;;;;;;4963905;28;20055;-16
2022/04/21 03:07:08;;;;;;;1.05;1.02;;;20.10;58.10;;;;;;4967506;28;20050;-15
2022/04/21 03:09:34;;;;;;;0.90;0.90;;;20.10;58.10;;;;;;4972937;28;20050;-16
2022/04/21 03:12:03;;;;;;;1.08;1.08;;;20.20;58.30;;;;;;4958138;28;20070;-16
2022/04/21 03:14:29;;;;;;;1.02;1.02;;;20.10;58.10;;;;;;4957708;28;20047;-16
2022/04/21 03:16:55;;;;;;;0.90;0.90;;;20.10;58.10;;;;;;4970780;28;20042;-15
2022/04/21 03:19:21;;;;;;;1.00;1.00;;;20.10;58.00;;;;;;4962510;28;20051;-16
2022/04/21 03:24:31;;;;;;;0.90;0.90;;;20.10;58.10;;;;;;4967944;28;20412;-16
2022/04/21 03:26:57;;;;;;;0.90;0.90;;;20.10;58.20;;;;;;4964291;28;20042;-16
2022/04/21 03:29:22;;;;;;;1.15;1.15;;;20.10;58.20;;;;;;4977077;28;20075;-16
2022/04/21 03:31:51;;;;;;;1.10;0.90;;;20.10;58.20;;;;;;4958807;28;20498;-17
2022/04/21 03:34:18;;;;;;;1.20;1.10;;;20.10;58.20;;;;;;4959405;28;20047;-16
2022/04/21 03:36:47;;;;;;;1.05;1.05;;;20.10;58.10;;;;;;4956897;28;20054;-17
2022/04/21 03:39:18;;;;;;;1.30;1.20;;;20.10;58.10;;;;;;4958869;28;20043;-17
2022/04/21 03:41:43;;;;;;;1.05;1.05;;;20.10;58.10;;;;;;4967274;28;20567;-16
2022/04/21 03:44:11;;;;;;;1.17;1.17;;;20.10;58.20;;;;;;4976745;28;20625;-15
2022/04/21 03:46:38;;;;;;;1.25;1.20;;;20.10;58.10;;;;;;4977085;28;20181;-16
2022/04/21 03:49:07;;;;;;;1.17;1.17;;;20.10;58.10;;;;;;4995272;28;20071;-16
2022/04/21 03:51:33;;;;;;;1.38;1.27;;;20.10;58.10;;;;;;4966996;28;20134;-15
2022/04/21 03:53:59;;;;;;;1.13;0.98;;;20.10;58.10;;;;;;4977648;28;20393;-16
2022/04/21 03:56:26;;;;;;;1.30;1.20;;;20.00;58.10;;;;;;4974592;28;20089;-16
2022/04/21 03:58:52;;;;;;;0.93;0.93;;;20.10;58.30;;;;;;4958508;28;20061;-15
2022/04/21 04:01:18;;;;;;;1.20;1.10;;;20.00;58.30;;;;;;4958441;28;20138;-15
2022/04/21 04:03:44;;;;;;;1.38;1.33;;;20.00;58.20;;;;;;4957733;28;20077;-16
2022/04/21 04:11:41;;;;;;;1.08;1.00;;;20.00;58.30;;;;;;4975336;28;20073;-16
2022/04/21 04:14:07;;;;;;;1.30;1.30;;;20.00;58.30;;;;;;4974248;28;20042;-16
2022/04/21 04:16:36;;;;;;;1.23;1.15;;;20.10;58.20;;;;;;4967354;28;20476;-15
2022/04/21 04:19:07;;;;;;;1.50;1.40;;;20.00;58.30;;;;;;4977429;28;20039;-16
2022/04/21 04:21:37;;;;;;;1.15;1.15;;;20.00;58.10;;;;;;4970316;28;20054;-15
2022/04/21 04:24:03;;;;;;;0.98;0.98;;;20.00;58.20;;;;;;4967151;28;20054;-15
2022/04/21 04:26:28;;;;;;;1.02;1.02;;;20.00;58.20;;;;;;4965326;28;20058;-16
2022/04/21 04:28:54;;;;;;;1.40;1.30;;;20.00;58.10;;;;;;4975077;28;20047;-16
2022/04/21 04:31:20;;;;;;;1.30;1.20;;;20.00;58.20;;;;;;4976554;28;20047;-16
2022/04/21 04:33:45;;;;;;;1.00;1.00;;;20.00;58.10;;;;;;4958663;28;20066;-15
2022/04/21 04:36:11;;;;;;;1.40;1.30;;;20.00;58.00;;;;;;4966231;28;20035;-16
2022/04/21 04:38:40;;;;;;;1.10;1.10;;;20.00;58.20;;;;;;4958654;28;20055;-16
2022/04/21 04:43:50;;;;;;;1.20;1.10;;;20.00;58.10;;;;;;4973821;28;20061;-15
2022/04/21 04:48:59;;;;;;;1.05;0.95;;;20.00;58.40;;;;;;4969663;28;20066;-16
2022/04/21 04:51:26;;;;;;;1.33;1.33;;;20.00;58.30;;;;;;4966736;28;20051;-14
2022/04/21 04:53:53;;;;;;;1.20;1.20;;;20.00;58.40;;;;;;4955727;28;20126;-16
2022/04/21 04:56:22;;;;;;;1.30;1.17;;;19.90;58.30;;;;;;4971948;28;20578;-16
2022/04/21 04:58:48;;;;;;;1.10;1.10;;;20.00;58.20;;;;;;4976168;28;20464;-17
2022/04/21 05:01:18;;;;;;;0.93;0.93;;;20.00;58.30;;;;;;4971638;28;20047;-15
2022/04/21 05:03:43;;;;;;;1.33;1.20;;;20.00;58.40;;;;;;4956688;28;20047;-16
2022/04/21 05:06:09;;;;;;;1.40;1.30;;;19.90;58.30;;;;;;4962562;28;20046;-16
2022/04/21 05:08:35;;;;;;;1.13;1.13;;;19.90;58.30;;;;;;4970012;28;20461;-16
2022/04/21 05:11:01;;;;;;;1.00;1.00;;;20.00;58.30;;;;;;4976556;28;20107;-16
2022/04/21 05:13:26;;;;;;;1.20;1.17;;;19.90;58.40;;;;;;4963980;28;20519;-17
2022/04/21 05:15:52;;;;;;;1.17;1.17;;;19.90;58.60;;;;;;4964360;28;20064;-15
2022/04/21 05:18:18;;;;;;;1.00;1.00;;;19.90;58.30;;;;;;4976238;28;20058;-15
2022/04/21 05:20:43;;;;;;;1.52;1.42;;;20.00;58.30;;;;;;4964448;28;20110;-15
2022/04/21 05:23:09;;;;;;;0.98;0.98;;;20.00;58.40;;;;;;4956716;28;20052;-16
2022/04/21 05:25:40;;;;;;;1.30;1.30;;;19.90;58.30;;;;;;4967000;28;20035;-15
2022/04/21 05:28:07;;;;;;;1.40;1.30;;;20.00;58.30;;;;;;4973282;28;20050;-16
2022/04/21 05:33:17;;;;;;;1.30;1.20;;;20.00;58.50;;;;;;4972580;28;20053;-15
2022/04/21 05:35:43;;;;;;;0.90;0.90;;;19.90;58.30;;;;;;4973444;28;20504;-16
2022/04/21 05:38:09;;;;;;;1.20;1.13;;;19.90;58.30;;;;;;4967190;28;20401;-16
2022/04/21 05:40:35;;;;;;;1.52;1.42;;;19.90;58.40;;;;;;4975706;28;20047;-16
2022/04/21 05:43:02;;;;;;;1.10;1.10;;;19.90;58.30;;;;;;4969120;28;20051;-16
2022/04/21 05:45:28;;;;;;;1.20;1.10;;;19.90;58.60;;;;;;4959846;28;20114;-17
2022/04/21 05:47:54;;;;;;;1.40;1.30;;;20.00;58.20;;;;;;4955251;28;20047;-15
2022/04/21 05:50:20;;;;;;;3.65;2.00;;;19.90;58.60;;;;;;4955561;28;20051;-16
2022/04/21 05:52:45;;;;;;;2.70;2.50;;;19.80;59.30;;;;;;4956567;28;20592;-15
2022/04/21 05:55:12;;;;;;;2.95;2.75;;;19.70;59.90;;;;;;4974300;28;20061;-15
2022/04/21 05:57:40;;;;;;;3.58;3.28;;;19.70;59.80;;;;;;4966364;28;20047;-16
2022/04/21 06:00:07;;;;;;;3.33;3.13;;;19.70;59.90;;;;;;4974591;28;20035;-18
2022/04/21 06:02:34;;;;;;;5.13;3.55;;;19.60;60.70;;;;;;4975563;28;20066;-16
2022/04/21 06:05:00;;;;;;;4.68;4.07;;;19.60;60.00;;;;;;4967554;28;20053;-16
2022/04/21 06:07:26;;;;;;;4.68;4.28;;;19.50;60.20;;;;;;4968306;28;20050;-16
2022/04/21 06:09:51;;;;;;;6.00;5.03;;;19.50;60.10;;;;;;4974645;28;20126;-16
2022/04/21 06:12:17;;;;;;;5.20;4.80;;;19.50;59.80;;;;;;4972827;28;20299;-16
2022/04/21 06:14:45;;;;;;;5.78;5.25;;;19.50;60.00;;;;;;4975514;28;20046;-16
2022/04/21 06:17:10;;;;;;;5.90;5.40;;;19.40;60.10;;;;;;4978892;28;20053;-16
2022/04/21 06:19:36;;;;;;;7.32;5.90;;;19.50;59.90;;;;;;4961597;28;20067;-16
2022/04/21 06:22:02;;;;;;;7.10;5.63;;;19.40;59.80;;;;;;4959456;28;20070;-16
2022/04/21 06:24:28;;;;;;;6.18;5.68;;;19.40;60.00;;;;;;4976633;28;20054;-16
2022/04/21 06:26:54;;;;;;;8.40;6.22;;;19.50;59.80;;;;;;4973041;28;20058;-16
2022/04/21 06:29:20;;;;;;;6.53;5.93;;;19.50;59.80;;;;;;4965935;28;20055;-16
2022/04/21 06:31:45;;;;;;;7.85;6.50;;;19.60;59.80;;;;;;4964518;28;20074;-16
2022/04/21 06:34:11;;;;;;;6.53;5.93;;;19.70;59.50;;;;;;4972613;28;20047;-16
2022/04/21 06:36:37;;;;;;;6.90;6.15;;;19.70;59.50;;;;;;4976257;28;20058;-16
2022/04/21 06:39:03;;;;;;;7.75;6.40;;;19.60;59.60;;;;;;4967018;28;20535;-15
2022/04/21 06:41:29;;;;;;;8.45;6.70;;;19.60;59.50;;;;;;4965199;28;20054;-16
2022/04/21 06:49:23;;;;;;;11.27;7.20;;;19.60;59.30;;;;;;4958443;28;19980;-16
2022/04/21 06:51:48;;;;;;;9.32;7.18;;;19.60;59.30;;;;;;4957253;28;20074;-16
2022/04/21 06:54:14;;;;;;;8.88;7.82;;;19.50;59.30;;;;;;4959109;28;20349;-16
2022/04/21 06:56:40;;;;;;;9.68;7.50;;;19.60;59.20;;;;;;4958271;28;20054;-16
2022/04/21 06:59:05;;;;;;;9.02;7.07;;;19.60;59.20;;;;;;4959205;28;20381;-18
2022/04/21 07:01:31;;;;;;;10.13;7.70;;;19.60;59.00;;;;;;4959044;28;20066;-16
2022/04/21 07:03:57;;;;;;;8.48;7.35;;;19.70;58.90;;;;;;4956947;28;20456;-16
2022/04/21 07:06:22;;;;;;;9.70;7.60;;;19.70;58.70;;;;;;4959004;28;20069;-16
2022/04/21 07:08:48;;;;;;;10.70;7.57;;;19.80;58.30;;;;;;4958267;28;20142;-18
2022/04/21 07:11:15;;;;;;;9.57;7.97;;;20.00;57.90;;;;;;4957610;28;20126;-17
2022/04/21 07:13:41;;;;;;;9.82;7.75;;;20.10;57.70;;;;;;4965686;28;20046;-17
2022/04/21 07:16:07;;;;;;;8.88;7.47;;;21.70;55.60;;;;;;4977657;28;20146;-17
2022/04/21 07:18:32;;;;;;;10.77;7.10;;;24.10;50.40;;;;;;4972978;28;20179;-17
2022/04/21 07:21:00;;;;;;;10.30;8.30;;;25.30;47.20;;;;;;4957873;28;20043;-19
2022/04/21 07:23:26;;;;;;;8.45;6.97;;;25.70;46.20;;;;;;4958265;28;20062;-17
2022/04/21 07:25:52;;;;;;;7.95;7.05;;;24.20;48.40;;;;;;4969266;28;20060;-17
2022/04/21 07:28:17;;;;;;;8.07;7.28;;;22.10;52.50;;;;;;4969642;28;20393;-17
2022/04/21 07:30:43;;;;;;;8.93;7.70;;;21.00;55.00;;;;;;4958008;28;20040;-16
2022/04/21 07:33:09;;;;;;;8.70;7.53;;;20.50;56.40;;;;;;4958060;28;20051;-16
2022/04/21 07:35:34;;;;;;;8.55;7.65;;;20.20;57.10;;;;;;4957775;28;20061;-19
2022/04/21 07:38:00;;;;;;;9.65;8.07;;;20.10;57.60;;;;;;4958217;28;20107;-16
2022/04/21 07:40:26;;;;;;;9.98;7.72;;;20.10;57.50;;;;;;4957100;28;20412;-16
2022/04/21 07:42:53;;;;;;;9.45;7.07;;;20.10;57.70;;;;;;4976431;28;20058;-16
2022/04/21 07:45:18;;;;;;;8.25;7.45;;;20.10;57.80;;;;;;4975926;28;20133;-16
2022/04/21 07:47:44;;;;;;;9.65;7.45;;;20.10;57.70;;;;;;4968676;28;20069;-16
2022/04/21 07:50:09;;;;;;;9.68;7.45;;;20.00;57.90;;;;;;4958125;28;20141;-17
2022/04/21 07:55:22;;;;;;;9.05;7.20;;;20.00;58.00;;;;;;4968890;28;20086;-16
2022/04/21 07:57:48;;;;;;;8.52;7.60;;;20.10;58.00;;;;;;4956122;28;20050;-16
2022/04/21 08:00:15;;;;;;;8.05;7.25;;;20.00;58.10;;;;;;4958399;28;20182;-16
2022/04/21 08:02:41;;;;;;;8.45;7.60;;;20.20;58.10;;;;;;4957574;28;20049;-17
2022/04/21 08:05:08;;;;;;;10.40;7.85;;;20.20;57.70;;;;;;4957479;28;20074;-16
2022/04/21 08:07:34;;;;;;;9.30;7.78;;;20.10;57.90;;;;;;4956581;28;20075;-16
2022/04/21 08:10:01;;;;;;;7.50;6.70;;;20.20;57.70;;;;;;4956988;28;20053;-16
2022/04/21 08:12:27;;;;;;;8.55;7.65;;;20.20;57.90;;;;;;4958002;28;20078;-16
2022/04/21 08:14:53;;;;;;;9.15;8.07;;;20.20;57.80;;;;;;4956556;28;20043;-16
2022/04/21 08:17:18;;;;;;;10.02;7.90;;;20.20;57.80;;;;;;4973425;28;20133;-17
2022/04/21 08:19:44;;;;;;;7.53;6.72;;;20.20;57.80;;;;;;4964779;28;20146;-17
2022/04/21 08:22:09;;;;;;;7.82;7.13;;;20.20;57.90;;;;;;4972170;28;20046;-16
2022/04/21 08:32:48;;;;;;;18.40;12.80;;;19.90;58.10;;;;;;4956677;28;19925;-17
2022/04/21 08:35:13;;;;;;;15.38;12.85;;;19.80;58.30;;;;;;4957241;28;20047;-17
2022/04/21 08:37:44;;;;;;;14.15;11.35;;;19.80;58.00;;;;;;4956283;28;20439;-17
2022/04/21 08:40:10;;;;;;;14.95;11.80;;;19.70;58.30;;;;;;4957141;28;20039;-16
2022/04/21 08:42:40;;;;;;;14.40;11.57;;;19.70;58.50;;;;;;4973925;28;20492;-16
2022/04/21 08:45:08;;;;;;;17.35;13.13;;;19.70;58.60;;;;;;4974319;28;20193;-16
2022/04/21 08:47:34;;;;;;;14.32;11.45;;;19.70;58.30;;;;;;4972330;28;20050;-16
2022/04/21 08:50:03;;;;;;;15.40;11.05;;;19.70;58.20;;;;;;4974627;28;20054;-16
2022/04/21 08:52:29;;;;;;;13.30;10.32;;;19.70;58.40;;;;;;4975059;28;20051;-16
2022/04/21 08:54:55;;;;;;;11.50;9.90;;;19.70;58.60;;;;;;4972658;28;20034;-16
2022/04/21 08:57:21;;;;;;;12.10;10.40;;;19.70;58.60;;;;;;4973983;28;20047;-17
2022/04/21 08:59:47;;;;;;;14.15;10.50;;;19.70;58.60;;;;;;4972264;28;20069;-16
2022/04/21 09:02:13;;;;;;;12.45;10.25;;;19.70;58.20;;;;;;4972591;28;20046;-16
2022/04/21 09:04:38;;;;;;;9.93;8.93;;;19.80;57.70;;;;;;4974761;28;20050;-16
2022/04/21 09:07:18;;;;;;;12.05;8.65;;;19.90;56.90;;;;;;4973383;28;20070;-16
2022/04/21 09:10:06;;;;;;;11.00;8.77;;;20.00;57.50;;;;;;4956519;28;20094;-16
2022/04/21 09:12:33;;;;;;;8.70;6.95;;;20.00;56.50;;;;;;4956518;28;20413;-16
2022/04/21 09:15:07;;;;;;;8.68;7.57;;;19.90;56.70;;;;;;4955801;28;20051;-16
2022/04/21 09:17:38;;;;;;;9.40;6.70;;;20.00;56.30;;;;;;4974565;28;20401;-16
2022/04/21 09:20:05;;;;;;;6.63;6.03;;;20.00;55.00;;;;;;4975594;28;20093;-16
2022/04/21 09:22:32;;;;;;;9.48;5.97;;;20.00;53.80;;;;;;4963586;28;20107;-17
2022/04/21 09:24:58;;;;;;;5.53;5.03;;;20.10;52.60;;;;;;4955727;28;20090;-15
2022/04/21 09:27:23;;;;;;;5.47;4.85;;;20.10;53.10;;;;;;4969907;28;20543;-16
2022/04/21 09:29:49;;;;;;;4.47;4.07;;;20.10;52.40;;;;;;4975234;28;20046;-15
2022/04/21 09:32:17;;;;;;;4.82;4.43;;;20.10;52.10;;;;;;4972388;28;20527;-16
2022/04/21 09:34:49;;;;;;;4.93;4.13;;;20.10;52.20;;;;;;4956039;28;20050;-17
2022/04/21 09:37:19;;;;;;;4.20;3.80;;;20.20;52.90;;;;;;4956417;28;20047;-16
2022/04/21 09:39:52;;;;;;;5.85;4.15;;;20.20;51.40;;;;;;4955670;28;20046;-17
2022/04/21 09:42:27;;;;;;;6.57;3.40;;;20.20;51.10;;;;;;4970757;28;20046;-16
2022/04/21 09:47:48;;;;;;;3.95;3.42;;;20.20;51.40;;;;;;4973142;28;20135;-16
2022/04/21 09:50:14;;;;;;;3.22;3.03;;;20.20;51.70;;;;;;4975025;28;20201;-16
2022/04/21 09:52:51;;;;;;;3.15;2.90;;;20.20;50.50;;;;;;4978132;28;20126;-16
2022/04/21 09:55:26;;;;;;;3.15;2.92;;;20.20;51.30;;;;;;4974886;28;20393;-16
2022/04/21 09:58:10;;;;;;;3.17;2.88;;;20.30;53.60;;;;;;4978820;28;20515;-16
2022/04/21 10:00:37;;;;;;;3.33;3.13;;;20.30;50.70;;;;;;4961463;28;20050;-16
2022/04/21 10:03:04;;;;;;;3.45;2.72;;;20.30;49.80;;;;;;4959550;28;20130;-16
2022/04/21 10:05:31;;;;;;;4.85;3.20;;;20.30;48.40;;;;;;4974539;28;20043;-16
2022/04/21 10:08:01;;;;;;;3.03;2.80;;;20.40;47.10;;;;;;4965157;28;20090;-16
2022/04/21 10:10:30;;;;;;;3.20;2.90;;;20.40;46.70;;;;;;4975615;28;20133;-16
2022/04/21 10:12:56;;;;;;;2.80;2.60;;;20.40;47.40;;;;;;4977242;28;20035;-16
2022/04/21 10:15:22;;;;;;;2.80;2.60;;;20.50;48.70;;;;;;4970840;28;20042;-17
2022/04/21 10:17:47;;;;;;;4.03;3.10;;;20.50;48.70;;;;;;4975136;28;20043;-17
2022/04/21 10:20:13;;;;;;;3.25;2.72;;;20.40;48.70;;;;;;4978576;28;20043;-16
2022/04/21 10:22:39;;;;;;;3.08;2.70;;;20.40;49.60;;;;;;4977723;28;20043;-16
2022/04/21 10:25:06;;;;;;;2.60;2.38;;;20.40;48.80;;;;;;4972966;28;20044;-16
2022/04/21 10:27:35;;;;;;;2.40;2.20;;;20.40;49.00;;;;;;4957992;28;20474;-16
2022/04/21 10:30:01;;;;;;;3.30;3.00;;;20.50;49.40;;;;;;4957647;28;20039;-16
2022/04/21 10:32:55;;;;;;;2.72;2.53;;;20.50;48.80;;;;;;4959945;28;20039;-17
2022/04/21 10:35:23;;;;;;;2.70;2.50;;;20.50;48.90;;;;;;4959081;28;20114;-16
2022/04/21 10:38:13;;;;;;;2.60;2.40;;;20.50;48.80;;;;;;4958921;28;20039;-17
2022/04/21 10:40:55;;;;;;;2.67;2.47;;;20.50;48.70;;;;;;4959647;28;20428;-16
2022/04/21 10:43:21;;;;;;;2.70;2.50;;;20.50;50.70;;;;;;4962830;28;20043;-16
2022/04/21 10:46:03;;;;;;;2.92;2.72;;;20.50;49.20;;;;;;4621576;28;10000124;-17
2022/04/21 10:48:41;;;;;;;2.88;2.67;;;20.50;49.50;;;;;;4969968;28;20047;-16
2022/04/21 10:51:07;;;;;;;3.47;2.75;;;20.50;49.60;;;;;;4971525;28;20063;-16
2022/04/21 10:57:12;;;;;;;7.05;2.33;;;20.60;49.30;;;;;;4960836;28;20069;-17
2022/04/21 10:59:30;;;;;;;2.75;2.50;;;20.60;49.50;;;;;;4967376;28;20055;-16
2022/04/21 11:01:56;;;;;;;2.35;2.25;;;20.70;48.40;;;;;;4966789;28;20161;-16
2022/04/21 11:04:23;;;;;;;2.35;2.25;;;20.80;48.60;;;;;;4994013;28;20078;-16
2022/04/21 11:06:51;;;;;;;3.00;2.80;;;20.80;46.50;;;;;;4973473;28;20078;-17
2022/04/21 11:09:45;;;;;;;2.67;2.47;;;20.90;47.70;;;;;;4974362;28;20043;-17
2022/04/21 11:12:13;;;;;;;2.63;2.30;;;20.80;47.20;;;;;;4962918;28;20047;-16
2022/04/21 11:14:39;;;;;;;3.10;2.78;;;20.70;48.20;;;;;;4969754;28;20058;-16
2022/04/21 11:17:05;;;;;;;2.92;2.38;;;20.60;48.20;;;;;;4963310;28;20043;-16
2022/04/21 11:19:31;;;;;;;2.70;2.20;;;20.60;48.10;;;;;;4969202;28;20042;-18
2022/04/21 11:22:01;;;;;;;2.10;1.90;;;20.70;47.70;;;;;;4963132;28;20066;-17
2022/04/21 11:24:26;;;;;;;3.00;1.90;;;20.70;47.30;;;;;;4972942;28;20051;-16
2022/04/21 11:26:58;;;;;;;2.33;2.10;;;20.70;48.10;;;;;;4973355;28;20058;-17
2022/04/21 11:29:24;;;;;;;2.22;2.13;;;20.70;48.00;;;;;;4961488;28;20051;-17
2022/04/21 11:31:57;;;;;;;2.65;1.92;;;20.80;47.90;;;;;;4973022;28;20062;-17
2022/04/21 11:34:23;;;;;;;2.83;2.10;;;20.80;47.60;;;;;;4961477;28;20712;-17
2022/04/21 11:36:49;;;;;;;2.60;2.40;;;20.90;47.80;;;;;;4972388;28;20570;-17
2022/04/21 11:39:15;;;;;;;2.55;2.17;;;20.90;44.10;;;;;;4960753;28;20058;-17
2022/04/21 11:41:42;;;;;;;2.40;2.10;;;21.00;45.10;;;;;;4973833;28;20050;-16
2022/04/21 11:44:07;;;;;;;1.85;1.75;;;21.10;45.20;;;;;;4966774;28;20511;-16
2022/04/21 11:46:39;;;;;;;2.28;2.08;;;21.10;45.10;;;;;;4973626;28;20396;-15
2022/04/21 11:49:06;;;;;;;2.03;1.92;;;21.10;44.00;;;;;;4964101;28;20111;-15
2022/04/21 11:51:32;;;;;;;2.42;1.45;;;21.10;45.00;;;;;;4968975;28;20073;-15
2022/04/21 11:54:04;;;;;;;2.25;2.15;;;21.00;46.50;;;;;;4972297;28;20050;-16
2022/04/21 11:56:30;;;;;;;2.45;1.90;;;21.10;44.80;;;;;;4960671;28;20057;-15
2022/04/21 11:58:56;;;;;;;1.95;1.85;;;21.10;44.90;;;;;;4972872;28;20046;-15
2022/04/21 12:06:58;;;;;;;1.38;1.27;;;21.00;45.50;;;;;;4973195;28;20053;-16
2022/04/21 12:09:25;;;;;;;2.53;1.30;;;21.10;43.70;;;;;;4969532;28;20639;-16
2022/04/21 12:11:57;;;;;;;1.88;1.55;;;21.20;43.80;;;;;;4968481;28;20050;-16
2022/04/21 12:14:23;;;;;;;1.95;1.00;;;21.10;44.60;;;;;;4951794;28;20476;-17
2022/04/21 12:17:01;;;;;;;1.25;0.98;;;21.00;44.80;;;;;;4966429;28;20043;-16
2022/04/21 12:19:35;;;;;;;1.10;1.00;;;21.00;46.10;;;;;;4972652;28;20508;-17
2022/04/21 12:22:15;;;;;;;2.47;0.85;;;21.00;45.10;;;;;;4969751;28;20670;-17
2022/04/21 12:24:48;;;;;;;1.00;1.00;;;21.10;42.90;;;;;;4963557;28;20047;-16
2022/04/21 12:27:28;;;;;;;0.75;0.75;;;21.10;44.60;;;;;;4989845;28;20424;-16
2022/04/21 12:30:00;;;;;;;1.15;0.90;;;21.10;43.40;;;;;;4964707;28;20460;-16
2022/04/21 12:32:27;;;;;;;1.40;1.00;;;21.10;44.80;;;;;;4972634;28;20054;-16
2022/04/21 12:34:55;;;;;;;2.10;0.82;;;21.20;40.80;;;;;;4972909;28;20431;-16
2022/04/21 12:38:50;;;;;;;1.15;0.85;;;21.10;43.20;;;;;;4967938;28;20055;-16
2022/04/21 12:40:36;;;;;;;0.80;0.80;;;21.10;44.10;;;;;;4970116;28;20102;-16
2022/04/21 12:43:01;;;;;;;0.93;0.93;;;21.20;43.60;;;;;;4970905;28;20596;-15
2022/04/21 12:45:27;;;;;;;0.95;0.90;;;21.10;42.50;;;;;;4964665;28;20047;-16
2022/04/21 12:47:53;;;;;;;1.13;0.73;;;21.20;43.70;;;;;;4980894;28;20051;-17
2022/04/21 12:50:22;;;;;;;1.77;0.90;;;21.20;44.10;;;;;;4960654;28;20074;-16
2022/04/21 12:52:51;;;;;;;0.95;0.95;;;21.20;43.10;;;;;;4973134;28;20050;-16
2022/04/21 12:55:21;;;;;;;0.90;0.85;;;21.20;43.50;;;;;;4980323;28;20049;-16
2022/04/21 12:57:59;;;;;;;1.08;0.98;;;21.20;42.20;;;;;;4972717;28;20053;-16
2022/04/21 13:00:25;;;;;;;0.90;0.85;;;21.20;42.80;;;;;;4971216;28;20047;-16
2022/04/21 13:02:50;;;;;;;1.50;0.85;;;21.20;43.00;;;;;;4969603;28;20053;-16
2022/04/21 13:05:16;;;;;;;1.38;0.82;;;21.20;42.60;;;;;;4963219;28;20134;-17
2022/04/21 13:07:42;;;;;;;0.90;0.90;;;21.20;41.00;;;;;;4969219;28;20042;-17
2022/04/21 13:10:07;;;;;;;0.98;0.77;;;21.30;39.80;;;;;;4971657;28;20054;-16
2022/04/21 13:12:33;;;;;;;0.80;0.80;;;21.40;40.60;;;;;;4970618;28;20475;-16
2022/04/21 13:15:00;;;;;;;0.60;0.60;;;21.30;42.70;;;;;;4968473;28;20043;-16
2022/04/21 13:17:25;;;;;;;0.70;0.70;;;21.20;42.90;;;;;;4968730;28;20054;-16
2022/04/21 13:19:51;;;;;;;0.80;0.80;;;21.20;42.60;;;;;;4973213;28;20642;-16
2022/04/21 13:22:17;;;;;;;0.77;0.77;;;21.30;43.00;;;;;;4971787;28;20050;-15
2022/04/21 13:24:42;;;;;;;0.70;0.70;;;21.30;43.10;;;;;;4977794;28;20132;-16
2022/04/21 13:27:08;;;;;;;0.70;0.70;;;21.30;43.30;;;;;;4978454;28;20047;-16
2022/04/21 13:29:33;;;;;;;3.60;0.98;;;21.30;43.80;;;;;;4978275;28;20053;-15
2022/04/21 13:34:44;;;;;;;0.70;0.70;;;21.30;43.30;;;;;;4977665;28;20597;-15
2022/04/21 13:37:09;;;;;;;0.80;0.73;;;21.20;43.40;;;;;;4978349;28;21321;-15
2022/04/21 13:39:36;;;;;;;0.80;0.80;;;21.20;43.60;;;;;;4976614;28;20541;-18
2022/04/21 13:42:03;;;;;;;0.82;0.82;;;21.30;43.30;;;;;;4976871;28;20115;-15
2022/04/21 13:44:28;;;;;;;0.93;0.77;;;21.40;43.70;;;;;;4977769;28;20054;-16